Time;durP1;ratioP1;P1;durP2;ratioP2;P2;SDS_P1;SDS_P2;PMS_P1;PMS_P2;Temp;Humidity;BMP_temperature;BMP_pressure;BME280_temperature;BME280_humidity;BME280_pressure;Samples;Min_cycle;Max_cycle;Signal;HPM_P1;HPM_P2
2022/08/04 00:00:12;;;;;;;1.75;1.48;;;24.50;77.70;;;;;;5030894;28;20041;-53
2022/08/04 00:03:48;;;;;;;4.20;1.80;;;24.50;78.20;;;;;;5030660;28;20411;-51
2022/08/04 00:07:23;;;;;;;1.75;1.58;;;24.50;77.90;;;;;;5030193;28;20408;-50
2022/08/04 00:10:27;;;;;;;3.42;1.98;;;24.50;78.00;;;;;;5030606;28;20404;-49
2022/08/04 00:13:54;;;;;;;4.35;2.08;;;24.40;77.90;;;;;;5030115;28;20037;-48
2022/08/04 00:16:58;;;;;;;5.72;1.92;;;24.30;78.30;;;;;;5030277;28;20045;-49
2022/08/04 00:23:28;;;;;;;3.25;1.80;;;24.30;78.40;;;;;;5030367;28;20049;-49
2022/08/04 00:29:58;;;;;;;5.28;2.30;;;24.10;78.40;;;;;;5018573;28;20045;-50
2022/08/04 00:33:03;;;;;;;4.40;1.73;;;24.00;78.40;;;;;;5029998;28;20051;-49
2022/08/04 00:36:27;;;;;;;4.22;1.88;;;23.90;78.20;;;;;;5030223;28;20041;-47
2022/08/04 00:39:52;;;;;;;2.58;1.80;;;23.90;78.20;;;;;;5029847;28;20033;-52
2022/08/04 00:43:07;;;;;;;2.92;1.58;;;23.90;78.20;;;;;;5029988;28;20048;-52
2022/08/04 00:46:35;;;;;;;1.60;1.40;;;23.90;77.60;;;;;;5030144;28;20408;-51
2022/08/04 00:49:46;;;;;;;5.05;1.65;;;23.90;78.00;;;;;;5030220;28;20048;-47
2022/08/04 00:53:13;;;;;;;4.60;1.60;;;23.80;76.20;;;;;;5029582;28;20408;-49
2022/08/04 00:56:48;;;;;;;1.48;1.20;;;23.80;76.10;;;;;;5029687;28;20044;-48
2022/08/04 00:59:52;;;;;;;2.35;1.65;;;23.80;75.20;;;;;;5030525;28;20041;-47
2022/08/04 01:03:41;;;;;;;1.83;1.35;;;23.80;76.40;;;;;;5030392;28;20041;-48
2022/08/04 01:10:59;;;;;;;4.68;1.38;;;23.60;75.90;;;;;;5029704;28;20045;-48
2022/08/04 01:14:34;;;;;;;2.87;1.67;;;23.50;77.10;;;;;;5029576;28;20044;-47
2022/08/04 01:18:07;;;;;;;2.55;1.35;;;23.40;78.30;;;;;;5029511;28;20044;-47
2022/08/04 01:22:10;;;;;;;2.33;1.67;;;23.20;76.90;;;;;;5029539;28;20056;-48
2022/08/04 01:25:35;;;;;;;3.10;1.50;;;23.10;77.10;;;;;;5014533;28;20048;-48
2022/08/04 01:29:12;;;;;;;3.08;2.00;;;23.10;78.90;;;;;;5029361;28;20045;-51
2022/08/04 01:32:53;;;;;;;3.22;1.58;;;23.20;77.70;;;;;;5029107;28;20133;-50
2022/08/04 01:36:21;;;;;;;3.40;1.33;;;23.20;76.30;;;;;;5029272;28;20037;-50
2022/08/04 01:39:48;;;;;;;2.05;1.27;;;23.30;75.30;;;;;;5029599;28;20551;-50
2022/08/04 01:42:54;;;;;;;5.38;1.73;;;23.20;75.00;;;;;;5029798;28;20045;-49
2022/08/04 01:46:04;;;;;;;2.13;1.50;;;23.10;75.90;;;;;;5029908;28;20052;-49
2022/08/04 01:49:10;;;;;;;2.30;1.30;;;23.00;76.30;;;;;;5029217;28;20054;-49
2022/08/04 01:52:16;;;;;;;1.52;1.42;;;23.00;76.60;;;;;;5028662;28;20033;-51
2022/08/04 01:55:22;;;;;;;2.08;1.55;;;23.00;76.60;;;;;;5029004;28;20068;-51
2022/08/04 01:58:29;;;;;;;2.65;1.48;;;23.00;76.80;;;;;;5029096;28;20049;-48
2022/08/04 02:01:52;;;;;;;3.20;1.50;;;23.00;76.60;;;;;;5029028;28;20041;-48
2022/08/04 02:05:16;;;;;;;1.50;1.27;;;23.00;76.70;;;;;;5029125;28;20400;-51
2022/08/04 02:08:43;;;;;;;2.08;1.38;;;22.90;77.10;;;;;;5029121;28;20408;-54
2022/08/04 02:15:48;;;;;;;7.45;1.75;;;22.80;80.70;;;;;;5028860;28;20048;-49
2022/08/04 02:23:28;;;;;;;4.50;1.60;;;22.70;79.70;;;;;;5032879;28;20044;-55
2022/08/04 02:26:34;;;;;;;2.65;1.90;;;22.50;80.30;;;;;;5032795;28;20044;-52
2022/08/04 02:30:16;;;;;;;1.67;1.40;;;22.50;80.10;;;;;;5032580;28;20052;-49
2022/08/04 02:33:26;;;;;;;3.60;1.37;;;22.50;79.60;;;;;;5032218;28;20038;-50
2022/08/04 02:36:41;;;;;;;3.05;1.65;;;22.50;79.60;;;;;;5032516;28;20033;-52
2022/08/04 02:48:57;;;;;;;7.93;2.20;;;22.30;78.60;;;;;;5032426;28;20033;-51
2022/08/04 02:52:03;;;;;;;2.75;1.63;;;22.30;80.70;;;;;;5031468;28;20053;-52
2022/08/04 02:55:10;;;;;;;2.00;1.50;;;22.30;80.00;;;;;;5031958;28;20048;-51
2022/08/04 02:58:19;;;;;;;1.70;1.50;;;22.20;79.20;;;;;;5031664;28;20044;-53
2022/08/04 03:01:23;;;;;;;3.92;1.33;;;22.20;79.10;;;;;;5031510;28;20048;-54
2022/08/04 03:05:02;;;;;;;1.73;1.20;;;22.20;78.00;;;;;;5031479;28;20048;-52
2022/08/04 03:08:45;;;;;;;1.90;1.15;;;22.20;77.30;;;;;;5014582;28;20056;-54
2022/08/04 03:12:17;;;;;;;1.77;1.30;;;22.10;77.20;;;;;;5031812;28;20037;-55
2022/08/04 03:15:30;;;;;;;3.50;1.33;;;21.90;78.00;;;;;;5031415;28;20053;-54
2022/08/04 03:19:25;;;;;;;2.20;1.40;;;21.80;78.10;;;;;;5031463;28;20369;-54
2022/08/04 03:23:04;;;;;;;3.78;1.88;;;21.70;79.00;;;;;;4970045;28;20395;-53
2022/08/04 03:26:39;;;;;;;3.75;1.63;;;21.60;80.90;;;;;;4988932;28;20048;-54
2022/08/04 03:29:54;;;;;;;6.22;1.98;;;21.50;82.60;;;;;;5030999;28;20041;-55
2022/08/04 03:33:00;;;;;;;2.40;1.40;;;21.40;83.70;;;;;;5031426;28;20041;-53
2022/08/04 03:36:38;;;;;;;5.68;1.88;;;21.40;82.40;;;;;;5031393;28;21008;-54
2022/08/04 03:39:56;;;;;;;1.63;1.30;;;21.40;81.90;;;;;;5030604;28;20037;-52
2022/08/04 03:43:34;;;;;;;3.67;1.70;;;21.40;81.50;;;;;;5031204;28;20408;-54
2022/08/04 03:46:57;;;;;;;4.30;1.50;;;21.40;82.10;;;;;;5031461;28;20048;-53
2022/08/04 03:50:03;;;;;;;8.73;1.83;;;21.30;82.50;;;;;;5031204;28;20400;-52
2022/08/04 03:53:32;;;;;;;6.93;2.45;;;21.30;83.00;;;;;;5031042;28;20056;-51
2022/08/04 03:57:00;;;;;;;2.97;1.65;;;21.20;83.90;;;;;;5031026;28;20049;-50
2022/08/04 04:00:14;;;;;;;6.25;1.88;;;21.20;83.70;;;;;;5030585;28;20041;-50
2022/08/04 04:03:46;;;;;;;8.40;2.25;;;21.10;86.70;;;;;;5030508;28;20056;-52
2022/08/04 04:07:34;;;;;;;2.42;1.77;;;20.90;88.80;;;;;;5031100;28;20037;-54
2022/08/04 04:11:05;;;;;;;6.22;1.95;;;20.70;88.80;;;;;;5030064;28;20037;-52
2022/08/04 04:14:27;;;;;;;7.90;2.28;;;20.70;89.40;;;;;;5030429;28;20041;-54
2022/08/04 04:17:49;;;;;;;;;;;20.50;90.60;;;;;;5031062;28;20049;-54
2022/08/04 04:21:23;;;;;;;3.75;2.00;;;20.40;90.40;;;;;;5030009;28;19948;-51
2022/08/04 04:24:45;;;;;;;2.78;1.50;;;20.40;90.10;;;;;;5029965;28;20049;-53
2022/08/04 04:28:33;;;;;;;2.10;1.63;;;20.40;88.50;;;;;;5030395;28;20400;-50
2022/08/04 04:31:56;;;;;;;3.03;2.05;;;20.50;88.60;;;;;;5029655;28;20058;-54
2022/08/04 04:35:06;;;;;;;2.30;1.55;;;20.50;90.70;;;;;;5029959;28;20057;-52
2022/08/04 04:38:34;;;;;;;7.13;2.20;;;20.60;90.40;;;;;;5029997;28;20036;-55
2022/08/04 04:42:16;;;;;;;2.13;1.92;;;20.60;90.70;;;;;;5029406;28;20033;-54
2022/08/04 04:45:56;;;;;;;2.85;1.90;;;20.60;90.70;;;;;;5029909;28;20045;-52
2022/08/04 04:49:04;;;;;;;4.78;1.98;;;20.70;90.50;;;;;;5030481;28;20504;-49
2022/08/04 04:52:32;;;;;;;8.02;2.35;;;20.70;90.30;;;;;;5029384;28;20045;-53
2022/08/04 04:55:59;;;;;;;4.78;1.90;;;20.80;90.40;;;;;;5050091;22;20057;-62
2022/08/04 04:59:14;;;;;;;12.10;2.78;;;20.80;90.60;;;;;;5029862;28;20037;-61
2022/08/04 05:02:50;;;;;;;7.38;2.13;;;20.90;90.80;;;;;;5029777;28;20527;-62
2022/08/04 05:06:36;;;;;;;4.57;2.20;;;22.90;89.80;;;;;;5029795;28;20041;-61
2022/08/04 05:09:59;;;;;;;7.35;2.15;;;26.60;81.50;;;;;;5029903;28;20037;-61
2022/08/04 05:13:08;;;;;;;8.35;2.05;;;29.60;75.90;;;;;;5029586;28;20053;-63
2022/08/04 05:16:18;;;;;;;4.80;1.88;;;31.10;73.20;;;;;;5029629;28;20048;-62
2022/08/04 05:19:28;;;;;;;2.22;1.50;;;32.40;70.30;;;;;;5029532;28;20048;-62
2022/08/04 05:22:38;;;;;;;19.23;2.53;;;31.90;69.50;;;;;;5029577;28;20424;-61
2022/08/04 05:26:10;;;;;;;4.43;2.20;;;33.30;69.30;;;;;;5029781;28;20131;-62
2022/08/04 05:29:45;;;;;;;8.20;1.90;;;34.70;67.10;;;;;;5017048;28;20060;-61
2022/08/04 05:32:57;;;;;;;8.75;2.38;;;35.30;65.80;;;;;;5029271;28;20052;-61
2022/08/04 05:36:06;;;;;;;9.25;1.83;;;35.30;65.70;;;;;;5029445;28;20045;-62
2022/08/04 05:39:17;;;;;;;2.30;1.55;;;33.50;66.20;;;;;;5029522;28;20045;-61
2022/08/04 05:42:21;;;;;;;2.63;1.63;;;33.30;66.50;;;;;;5029008;28;20048;-61
2022/08/04 05:45:26;;;;;;;2.35;1.42;;;33.80;66.50;;;;;;5029152;28;20117;-64
2022/08/04 05:48:32;;;;;;;5.68;1.70;;;33.20;65.70;;;;;;5017164;28;20511;-62
2022/08/04 05:51:37;;;;;;;2.28;1.52;;;34.10;65.80;;;;;;5028915;28;20070;-62
2022/08/04 05:54:42;;;;;;;4.63;1.70;;;32.90;65.90;;;;;;5031975;28;20050;-61
2022/08/04 05:57:47;;;;;;;2.97;1.70;;;32.90;66.40;;;;;;5032971;28;20045;-61
2022/08/04 06:00:54;;;;;;;4.07;1.88;;;32.40;66.40;;;;;;5019396;28;20046;-63
2022/08/04 06:04:00;;;;;;;5.18;1.60;;;32.30;67.50;;;;;;5012629;28;20038;-63
2022/08/04 06:07:05;;;;;;;4.50;1.58;;;32.30;67.10;;;;;;5013012;28;20391;-63
2022/08/04 06:10:09;;;;;;;6.32;1.65;;;31.10;68.00;;;;;;5013119;28;20045;-64
2022/08/04 06:13:17;;;;;;;3.15;1.50;;;31.20;69.10;;;;;;5012807;28;20043;-60
2022/08/04 06:16:24;;;;;;;1.90;1.52;;;32.40;67.60;;;;;;5013116;28;20425;-64
2022/08/04 06:19:30;;;;;;;4.35;1.30;;;33.40;66.00;;;;;;5020751;28;20040;-59
2022/08/04 06:22:38;;;;;;;2.72;1.38;;;34.70;64.70;;;;;;5012733;28;20037;-64
2022/08/04 06:25:51;;;;;;;4.40;1.63;;;35.30;63.50;;;;;;5012582;28;20041;-63
2022/08/04 06:28:57;;;;;;;3.38;1.40;;;34.90;63.50;;;;;;5012873;28;20045;-61
2022/08/04 06:32:12;;;;;;;4.55;1.67;;;33.40;63.50;;;;;;5013091;28;20061;-63
2022/08/04 06:35:18;;;;;;;3.92;1.48;;;32.30;65.50;;;;;;5012654;28;20054;-63
2022/08/04 06:38:24;;;;;;;5.90;1.55;;;32.60;65.00;;;;;;5005641;28;20033;-62
2022/08/04 06:41:29;;;;;;;3.35;1.23;;;33.70;64.40;;;;;;5032363;28;20049;-63
2022/08/04 06:44:34;;;;;;;2.70;1.20;;;35.20;63.60;;;;;;5031588;28;20724;-62
2022/08/04 06:47:40;;;;;;;5.95;1.48;;;35.90;61.70;;;;;;5032417;28;20048;-65
2022/08/04 06:50:47;;;;;;;2.53;1.40;;;36.30;61.90;;;;;;5032022;28;20433;-63
2022/08/04 06:53:51;;;;;;;2.80;1.55;;;36.30;61.50;;;;;;5032006;28;20048;-64
2022/08/04 06:56:57;;;;;;;4.90;1.40;;;35.70;60.90;;;;;;5031932;28;20056;-64
2022/08/04 07:00:09;;;;;;;4.55;1.30;;;34.70;63.50;;;;;;5032305;28;20053;-64
2022/08/04 07:03:14;;;;;;;4.20;1.98;;;35.10;62.40;;;;;;5027712;28;20052;-63
2022/08/04 07:06:21;;;;;;;4.47;1.38;;;36.10;61.60;;;;;;5027773;28;20429;-64
2022/08/04 07:09:25;;;;;;;3.88;1.30;;;34.30;63.50;;;;;;5030992;28;20041;-65
2022/08/04 07:12:31;;;;;;;5.30;1.50;;;34.40;63.80;;;;;;5031208;28;20037;-64
2022/08/04 07:15:37;;;;;;;3.95;1.58;;;35.00;62.80;;;;;;5025924;28;20041;-64
2022/08/04 07:18:42;;;;;;;8.32;1.85;;;35.40;62.90;;;;;;5012103;28;20113;-63
2022/08/04 07:21:46;;;;;;;5.40;1.65;;;36.20;61.30;;;;;;5011799;28;20050;-64
2022/08/04 07:24:54;;;;;;;7.25;1.60;;;36.90;60.40;;;;;;5018891;28;20053;-58
2022/08/04 07:27:57;;;;;;;6.38;1.30;;;35.30;62.10;;;;;;5023441;28;20519;-59
2022/08/04 07:31:04;;;;;;;3.08;1.40;;;35.60;62.50;;;;;;5024173;28;20044;-62
2022/08/04 07:34:08;;;;;;;4.72;1.55;;;36.10;61.90;;;;;;5029232;28;20053;-68
2022/08/04 07:37:12;;;;;;;5.97;1.30;;;36.20;61.50;;;;;;5026892;28;20052;-66
2022/08/04 07:40:16;;;;;;;2.13;1.10;;;37.60;60.70;;;;;;5030918;28;20042;-63
2022/08/04 07:43:20;;;;;;;3.67;1.20;;;37.50;59.40;;;;;;5015498;28;20045;-62
2022/08/04 07:46:25;;;;;;;4.90;1.48;;;38.30;59.70;;;;;;5029090;28;20066;-66
2022/08/04 07:49:29;;;;;;;3.35;1.50;;;37.60;59.20;;;;;;5026454;28;20030;-64
2022/08/04 07:52:35;;;;;;;1.10;1.00;;;37.80;59.70;;;;;;5023265;28;20037;-65
2022/08/04 07:55:39;;;;;;;1.92;1.10;;;38.30;59.80;;;;;;5025226;28;20044;-64
2022/08/04 07:58:43;;;;;;;4.10;1.35;;;37.60;59.60;;;;;;5028825;28;20045;-59
2022/08/04 08:01:48;;;;;;;6.25;1.67;;;37.70;58.90;;;;;;5022135;28;20056;-60
2022/08/04 08:04:53;;;;;;;1.85;0.98;;;38.60;58.90;;;;;;5026613;28;20043;-59
2022/08/04 08:07:58;;;;;;;1.83;0.90;;;40.30;56.80;;;;;;5030542;28;20040;-61
2022/08/04 08:11:03;;;;;;;3.08;1.20;;;41.70;55.20;;;;;;5028494;28;20048;-60
2022/08/04 08:14:10;;;;;;;3.10;0.80;;;41.10;55.60;;;;;;5021814;28;20044;-59
2022/08/04 08:17:14;;;;;;;2.20;1.00;;;42.10;54.50;;;;;;5029775;28;20034;-60
2022/08/04 08:20:18;;;;;;;1.60;0.80;;;41.90;53.70;;;;;;5030712;28;20052;-60
2022/08/04 08:23:22;;;;;;;1.30;0.85;;;42.60;52.50;;;;;;5029951;28;20056;-60
2022/08/04 08:26:26;;;;;;;3.05;0.95;;;43.90;52.80;;;;;;5030504;28;20503;-61
2022/08/04 08:29:33;;;;;;;1.73;0.90;;;42.00;52.50;;;;;;5030335;28;20210;-60
2022/08/04 08:32:37;;;;;;;2.35;0.80;;;41.40;52.20;;;;;;5030344;28;20056;-61
2022/08/04 08:35:50;;;;;;;0.93;0.60;;;41.60;51.60;;;;;;5030015;28;20040;-60
2022/08/04 08:39:03;;;;;;;5.07;1.25;;;41.40;51.50;;;;;;5030148;28;20060;-59
2022/08/04 08:42:10;;;;;;;2.88;1.20;;;42.70;51.30;;;;;;5029657;28;20537;-61
2022/08/04 08:45:40;;;;;;;1.10;0.80;;;44.60;52.10;;;;;;5029548;28;20408;-60
2022/08/04 08:48:49;;;;;;;1.67;0.85;;;46.70;50.20;;;;;;5021064;28;20049;-59
2022/08/04 08:51:58;;;;;;;5.20;1.05;;;47.60;49.50;;;;;;5026309;28;20045;-61
2022/08/04 08:55:18;;;;;;;2.92;0.80;;;48.10;49.20;;;;;;5024520;28;20033;-61
2022/08/04 08:58:22;;;;;;;4.65;1.02;;;48.70;48.70;;;;;;5013520;28;20037;-61
2022/08/04 09:01:38;;;;;;;3.55;1.75;;;48.20;48.90;;;;;;5023418;28;20059;-59
2022/08/04 09:05:10;;;;;;;1.85;1.00;;;49.10;48.20;;;;;;5019456;28;20030;-59
2022/08/04 09:08:36;;;;;;;2.53;0.88;;;49.60;48.20;;;;;;5029244;28;20040;-60
2022/08/04 09:12:18;;;;;;;1.52;0.90;;;48.10;48.40;;;;;;5029658;28;20044;-60
2022/08/04 09:15:35;;;;;;;1.73;0.80;;;46.20;49.40;;;;;;5029169;28;20570;-61
2022/08/04 09:18:54;;;;;;;2.17;0.82;;;47.30;48.90;;;;;;5026764;28;20056;-62
2022/08/04 09:22:34;;;;;;;4.32;0.95;;;45.50;48.70;;;;;;5019867;28;20042;-61
2022/08/04 09:26:00;;;;;;;8.00;1.20;;;44.60;50.00;;;;;;5003086;28;20119;-61
2022/08/04 09:29:17;;;;;;;4.53;1.45;;;42.40;50.30;;;;;;5032103;28;20045;-58
2022/08/04 09:32:32;;;;;;;2.72;0.95;;;42.70;52.50;;;;;;5030318;28;20037;-62
2022/08/04 09:35:38;;;;;;;3.08;1.25;;;44.60;51.30;;;;;;5023084;28;20048;-62
2022/08/04 09:39:05;;;;;;;3.22;1.00;;;44.40;51.90;;;;;;5027670;28;20511;-61
2022/08/04 13:33:16;;;;;;;1.98;1.75;;;37.40;54.50;;;;;;5010658;28;20401;-60
2022/08/04 13:36:27;;;;;;;7.10;2.00;;;37.20;54.40;;;;;;5009792;28;20053;-59
2022/08/04 13:39:33;;;;;;;2.63;1.80;;;37.80;54.80;;;;;;5009924;28;20049;-59
2022/08/04 13:42:39;;;;;;;4.10;1.67;;;38.40;53.90;;;;;;5009550;28;20066;-60
2022/08/04 13:45:43;;;;;;;4.40;1.67;;;39.20;53.60;;;;;;5002676;28;20065;-59
2022/08/04 13:48:47;;;;;;;4.20;1.90;;;39.00;53.50;;;;;;4997378;28;20057;-56
2022/08/04 13:51:55;;;;;;;4.13;1.60;;;39.10;53.70;;;;;;5009555;28;20041;-59
2022/08/04 13:54:59;;;;;;;2.05;1.77;;;38.80;53.90;;;;;;5009224;28;20064;-57
2022/08/04 13:58:17;;;;;;;4.18;1.92;;;38.50;53.50;;;;;;5010013;28;20041;-58
2022/08/04 14:01:25;;;;;;;2.63;2.20;;;37.50;55.10;;;;;;5009385;28;20512;-59
2022/08/04 14:04:33;;;;;;;2.40;1.65;;;37.00;55.20;;;;;;5011982;28;20046;-56
2022/08/04 14:08:05;;;;;;;3.05;1.80;;;36.90;55.50;;;;;;5028767;28;20044;-59
2022/08/04 14:11:10;;;;;;;4.43;1.88;;;37.30;55.10;;;;;;5028819;28;20052;-58
2022/08/04 14:14:24;;;;;;;4.65;2.25;;;37.30;54.80;;;;;;5018116;28;20416;-59
2022/08/04 14:17:28;;;;;;;3.10;1.65;;;37.80;54.90;;;;;;5032937;28;20033;-56
2022/08/04 14:20:32;;;;;;;2.63;1.90;;;37.90;53.90;;;;;;5032775;28;20029;-59
2022/08/04 14:23:49;;;;;;;2.50;1.88;;;37.30;54.80;;;;;;5031972;28;20052;-60
2022/08/04 14:27:00;;;;;;;2.20;1.92;;;37.10;54.80;;;;;;5032712;28;20049;-60
2022/08/04 14:30:04;;;;;;;3.50;1.67;;;37.50;54.50;;;;;;5032105;28;20037;-58
2022/08/04 14:33:11;;;;;;;3.95;2.80;;;38.10;54.40;;;;;;5032430;28;20056;-57
2022/08/04 14:36:16;;;;;;;6.65;4.95;;;37.10;54.90;;;;;;5032498;28;20057;-60
2022/08/04 14:39:36;;;;;;;5.82;4.65;;;37.00;54.80;;;;;;5032603;28;20377;-59
2022/08/04 14:42:46;;;;;;;9.90;4.95;;;38.00;54.70;;;;;;5032393;28;20507;-59
2022/08/04 14:45:53;;;;;;;9.07;4.30;;;38.50;54.50;;;;;;5032350;28;20037;-59
2022/08/04 14:49:09;;;;;;;6.78;4.03;;;38.00;55.00;;;;;;5032449;28;20424;-59
2022/08/04 14:52:23;;;;;;;5.40;3.90;;;38.40;53.80;;;;;;5032052;28;20041;-60
2022/08/04 14:55:27;;;;;;;5.07;4.03;;;39.20;53.50;;;;;;5031451;28;20413;-59
2022/08/04 14:58:33;;;;;;;6.40;4.97;;;39.70;53.20;;;;;;5032192;28;20052;-58
2022/08/04 15:01:38;;;;;;;7.22;5.88;;;40.10;52.70;;;;;;5031969;28;20044;-58
2022/08/04 15:04:45;;;;;;;7.28;6.03;;;38.80;53.30;;;;;;5031243;28;20041;-60
2022/08/04 15:07:50;;;;;;;7.22;5.75;;;37.70;54.00;;;;;;5032193;28;20044;-59
2022/08/04 15:10:57;;;;;;;8.77;5.72;;;37.70;54.20;;;;;;5031754;28;20042;-58
2022/08/04 15:14:01;;;;;;;7.45;5.88;;;37.80;54.40;;;;;;5031439;28;20046;-59
2022/08/04 15:17:06;;;;;;;4.90;3.65;;;38.00;54.90;;;;;;5032526;28;20048;-59
2022/08/04 15:20:11;;;;;;;4.70;3.85;;;37.00;54.70;;;;;;5031926;28;20041;-59
2022/08/04 15:23:16;;;;;;;8.80;5.22;;;36.70;55.20;;;;;;5031238;28;20040;-57
2022/08/04 15:26:38;;;;;;;8.23;5.22;;;36.60;55.00;;;;;;5031182;28;20040;-58
2022/08/04 15:29:46;;;;;;;7.32;4.18;;;37.30;54.60;;;;;;5031310;28;20061;-57
2022/08/04 15:32:52;;;;;;;5.28;4.07;;;37.90;54.30;;;;;;5031348;28;20040;-59
2022/08/04 15:36:24;;;;;;;7.05;4.20;;;37.10;54.40;;;;;;5030915;28;20048;-57
2022/08/04 15:39:43;;;;;;;5.97;4.28;;;37.10;54.80;;;;;;5031439;28;20029;-55
2022/08/04 15:43:16;;;;;;;6.22;3.90;;;37.20;55.20;;;;;;5031025;28;20033;-59
2022/08/04 15:47:06;;;;;;;6.75;3.90;;;36.90;54.80;;;;;;5031138;28;20507;-59
2022/08/04 15:50:11;;;;;;;7.50;4.00;;;36.80;54.90;;;;;;5031161;28;20400;-57
2022/08/04 15:53:15;;;;;;;5.07;3.80;;;36.50;55.30;;;;;;5030662;28;20044;-59
2022/08/04 15:56:28;;;;;;;4.40;3.78;;;36.30;55.30;;;;;;5030996;28;20272;-59
2022/08/04 15:59:51;;;;;;;6.07;3.90;;;36.40;55.20;;;;;;5030996;28;20046;-59
2022/08/04 16:02:54;;;;;;;6.53;4.68;;;36.00;55.40;;;;;;5030593;28;20041;-58
2022/08/04 16:06:16;;;;;;;4.82;3.58;;;36.40;55.70;;;;;;5030861;28;20052;-60
2022/08/04 16:09:25;;;;;;;10.38;4.10;;;36.40;55.30;;;;;;5030659;28;20042;-60
2022/08/04 16:12:52;;;;;;;8.45;4.43;;;36.40;55.30;;;;;;5030610;28;20523;-61
2022/08/04 16:15:57;;;;;;;5.80;4.50;;;36.40;55.30;;;;;;5030333;28;20046;-57
2022/08/04 16:19:20;;;;;;;7.65;3.72;;;36.40;54.80;;;;;;5030582;28;20511;-60
2022/08/04 16:22:39;;;;;;;5.57;4.30;;;36.40;55.30;;;;;;5030496;28;20044;-60
2022/08/04 16:25:50;;;;;;;5.82;3.85;;;36.40;55.20;;;;;;5030035;28;20045;-60
2022/08/04 16:28:55;;;;;;;5.05;4.10;;;36.20;55.60;;;;;;5030513;28;20038;-61
2022/08/04 16:32:09;;;;;;;6.95;3.97;;;36.20;55.40;;;;;;5029962;28;20034;-61
2022/08/04 16:35:24;;;;;;;6.65;4.30;;;35.90;55.90;;;;;;5030023;28;20420;-59
2022/08/04 16:38:28;;;;;;;5.60;3.67;;;35.70;56.20;;;;;;5030649;28;20487;-60
2022/08/04 16:41:40;;;;;;;7.10;3.95;;;35.70;55.80;;;;;;5030795;28;20505;-61
2022/08/04 16:45:01;;;;;;;5.43;3.63;;;35.90;55.90;;;;;;5029879;28;20048;-57
2022/08/04 16:48:09;;;;;;;5.20;2.70;;;35.70;55.90;;;;;;5029852;28;20506;-60
2022/08/04 16:51:13;;;;;;;4.53;3.50;;;35.50;55.70;;;;;;5029838;28;20400;-60
2022/08/04 16:54:18;;;;;;;4.53;2.90;;;35.40;56.30;;;;;;5029339;28;20052;-60
2022/08/04 16:57:22;;;;;;;4.65;2.42;;;35.50;56.30;;;;;;5029937;28;20547;-59
2022/08/04 17:00:35;;;;;;;3.03;2.47;;;35.50;56.40;;;;;;5029782;28;20040;-59
2022/08/04 17:03:41;;;;;;;2.90;2.30;;;35.40;56.40;;;;;;5029125;28;20040;-60
2022/08/04 17:06:45;;;;;;;3.67;2.30;;;35.00;56.60;;;;;;5029984;28;20163;-59
2022/08/04 17:09:50;;;;;;;4.53;3.20;;;35.00;56.50;;;;;;5029848;28;20041;-61
2022/08/04 17:12:54;;;;;;;9.27;2.50;;;34.80;56.90;;;;;;5029957;28;20052;-60
2022/08/04 17:16:02;;;;;;;3.72;2.78;;;34.70;56.90;;;;;;5005641;28;20048;-59
2022/08/04 17:19:07;;;;;;;12.00;3.42;;;34.60;57.10;;;;;;5029586;28;20033;-59
2022/08/04 17:22:11;;;;;;;4.07;2.63;;;34.60;57.20;;;;;;5029639;28;20044;-59
2022/08/04 17:25:15;;;;;;;6.88;2.60;;;34.60;57.10;;;;;;5029121;28;20121;-56
2022/08/04 17:28:20;;;;;;;5.32;2.70;;;34.60;57.30;;;;;;5017581;28;20045;-59
2022/08/04 17:31:26;;;;;;;3.78;2.60;;;34.70;57.30;;;;;;5029427;28;20615;-59
2022/08/04 17:34:31;;;;;;;5.78;2.50;;;34.80;57.10;;;;;;5028798;28;20049;-60
2022/08/04 17:37:35;;;;;;;3.33;2.30;;;34.90;57.00;;;;;;5029505;28;20045;-60
2022/08/04 17:40:57;;;;;;;3.13;1.92;;;34.90;57.20;;;;;;5029526;28;20049;-56
2022/08/04 17:44:03;;;;;;;2.42;2.00;;;34.90;56.60;;;;;;5029323;28;20036;-59
2022/08/04 17:47:19;;;;;;;2.65;1.60;;;34.80;56.80;;;;;;5029523;28;20519;-60
2022/08/04 17:50:25;;;;;;;4.05;2.10;;;34.80;57.00;;;;;;5033243;28;20044;-58
2022/08/04 17:53:35;;;;;;;5.78;2.72;;;34.70;57.20;;;;;;5032992;28;20040;-56
2022/08/04 17:56:50;;;;;;;3.15;2.00;;;34.60;57.40;;;;;;5032807;28;20408;-59
2022/08/04 17:59:56;;;;;;;8.98;1.88;;;34.50;57.40;;;;;;5033171;28;20036;-59
2022/08/04 18:02:59;;;;;;;6.18;1.70;;;34.40;57.40;;;;;;5032844;28;20049;-58
2022/08/04 18:06:11;;;;;;;2.53;1.80;;;34.30;57.50;;;;;;5032902;28;20056;-60
2022/08/04 18:09:20;;;;;;;;;;;34.30;58.20;;;;;;5033543;28;20044;-58
2022/08/04 18:12:31;;;;;;;9.53;2.13;;;34.10;58.50;;;;;;5032823;28;19916;-60
2022/08/04 18:15:35;;;;;;;2.40;1.73;;;33.90;59.20;;;;;;5032262;28;20298;-60
2022/08/04 18:18:39;;;;;;;10.07;1.80;;;33.70;59.70;;;;;;5032974;28;20040;-59
2022/08/04 18:21:44;;;;;;;7.82;2.05;;;33.40;59.90;;;;;;5032796;28;20056;-55
2022/08/04 18:24:48;;;;;;;10.75;1.52;;;33.20;60.10;;;;;;5032347;28;20056;-56
2022/08/04 18:27:55;;;;;;;6.90;1.90;;;33.00;60.10;;;;;;5032900;28;20044;-57
2022/08/04 18:31:00;;;;;;;5.45;1.65;;;32.90;60.60;;;;;;5032934;28;20416;-59
2022/08/04 18:34:07;;;;;;;5.20;2.35;;;32.70;60.70;;;;;;5032403;28;20052;-59
2022/08/04 18:37:12;;;;;;;4.95;1.77;;;32.50;60.80;;;;;;5020789;28;20040;-61
2022/08/04 18:40:15;;;;;;;1.75;1.25;;;32.40;61.80;;;;;;5032282;28;20036;-58
2022/08/04 18:43:19;;;;;;;5.07;1.55;;;32.20;61.60;;;;;;5032666;28;20408;-60
2022/08/04 18:46:29;;;;;;;3.13;1.73;;;32.00;61.90;;;;;;5032469;28;20069;-60
2022/08/04 18:49:33;;;;;;;9.02;2.35;;;31.80;61.90;;;;;;5032295;28;20404;-59
2022/08/04 18:52:37;;;;;;;7.03;2.13;;;31.70;62.30;;;;;;5032517;28;20048;-58
2022/08/04 18:55:41;;;;;;;4.75;1.83;;;31.50;62.60;;;;;;5031935;28;20060;-60
2022/08/04 18:58:46;;;;;;;3.45;1.52;;;31.40;63.10;;;;;;5032337;28;20052;-60
2022/08/04 19:01:49;;;;;;;7.57;1.73;;;31.20;63.20;;;;;;5032352;28;20507;-58
2022/08/04 19:04:53;;;;;;;4.55;1.90;;;31.00;63.50;;;;;;5031474;28;20060;-60
2022/08/04 19:07:57;;;;;;;7.40;3.15;;;30.90;63.70;;;;;;5019841;28;20060;-59
2022/08/04 19:11:03;;;;;;;3.53;2.17;;;30.80;63.70;;;;;;5031734;28;20048;-60
2022/08/04 19:14:07;;;;;;;3.80;1.63;;;30.60;63.80;;;;;;5031763;28;20499;-59
2022/08/04 19:17:11;;;;;;;9.40;2.03;;;30.60;64.30;;;;;;5031694;28;20040;-59
2022/08/04 19:20:16;;;;;;;6.95;2.88;;;30.50;64.20;;;;;;5031765;28;20041;-59
2022/08/04 19:23:21;;;;;;;8.80;2.70;;;30.50;64.10;;;;;;5031492;28;20057;-60
2022/08/04 19:26:24;;;;;;;5.40;1.98;;;30.40;64.20;;;;;;5031657;28;20056;-57
2022/08/04 19:29:29;;;;;;;4.80;1.83;;;30.40;64.20;;;;;;5031321;28;20052;-60
2022/08/04 19:32:33;;;;;;;4.22;1.90;;;30.30;64.10;;;;;;5031803;28;20168;-60
2022/08/04 19:35:39;;;;;;;3.35;1.70;;;30.30;64.20;;;;;;5030946;28;20128;-58
2022/08/04 19:38:44;;;;;;;5.50;1.70;;;30.20;64.30;;;;;;5031186;28;20417;-60
2022/08/04 19:41:48;;;;;;;3.05;1.80;;;30.20;64.50;;;;;;5031346;28;20056;-56
2022/08/04 19:44:51;;;;;;;6.20;1.75;;;30.00;65.40;;;;;;5031149;28;20048;-59
2022/08/04 19:47:55;;;;;;;3.17;1.98;;;30.00;65.30;;;;;;5030928;28;20060;-60
2022/08/04 19:50:59;;;;;;;6.15;2.05;;;30.00;65.70;;;;;;5031062;28;20404;-59
2022/08/04 19:54:04;;;;;;;5.47;1.77;;;29.90;65.90;;;;;;5030836;28;20060;-60
2022/08/04 19:57:08;;;;;;;4.60;2.10;;;29.80;66.30;;;;;;5030739;28;20065;-56
2022/08/04 20:00:13;;;;;;;4.85;2.42;;;29.70;66.60;;;;;;5030945;28;20060;-56
2022/08/04 20:03:17;;;;;;;3.53;1.95;;;29.60;66.70;;;;;;5030387;28;20052;-58
2022/08/04 20:06:23;;;;;;;5.80;2.20;;;29.50;66.80;;;;;;5030445;28;20045;-59
2022/08/04 20:09:27;;;;;;;3.08;1.88;;;29.50;67.30;;;;;;5030925;28;20404;-60
2022/08/04 20:12:31;;;;;;;4.88;2.10;;;29.40;67.70;;;;;;5029847;28;20416;-57
2022/08/04 20:15:35;;;;;;;6.63;1.95;;;29.30;67.90;;;;;;5030344;28;20404;-57
2022/08/04 20:18:42;;;;;;;6.22;2.53;;;29.20;68.20;;;;;;5030581;28;20044;-60
2022/08/04 20:21:47;;;;;;;9.02;3.05;;;29.10;68.30;;;;;;5030456;28;20044;-59
2022/08/04 20:24:51;;;;;;;3.90;2.40;;;29.10;68.40;;;;;;5030168;28;20048;-57
2022/08/04 20:27:56;;;;;;;3.85;2.10;;;29.10;68.50;;;;;;5030383;28;20056;-56
2022/08/04 20:31:00;;;;;;;8.60;2.45;;;29.10;68.30;;;;;;5029807;28;20523;-58
2022/08/04 20:34:04;;;;;;;5.90;2.20;;;29.00;68.40;;;;;;5030080;28;20044;-59
2022/08/04 20:37:08;;;;;;;4.55;2.40;;;28.90;68.40;;;;;;5030044;28;20044;-59
2022/08/04 20:40:13;;;;;;;13.95;3.25;;;28.90;68.50;;;;;;5018005;28;20288;-57
2022/08/04 20:43:19;;;;;;;3.35;2.20;;;28.90;68.50;;;;;;5030432;28;20514;-59
2022/08/04 20:46:23;;;;;;;6.28;2.20;;;28.90;68.60;;;;;;5030077;28;20060;-59
2022/08/04 20:49:27;;;;;;;5.07;2.53;;;28.90;68.50;;;;;;5030111;28;20044;-57
2022/08/04 20:52:32;;;;;;;8.32;2.80;;;28.90;68.20;;;;;;5030086;28;20443;-60
2022/08/04 20:55:35;;;;;;;5.85;2.05;;;29.00;68.20;;;;;;5029520;28;20048;-59
2022/08/04 20:58:40;;;;;;;4.13;1.90;;;29.00;68.20;;;;;;5029633;28;20045;-58
2022/08/04 21:01:45;;;;;;;2.47;1.98;;;29.00;67.90;;;;;;5029725;28;20515;-60